Time;durP1;ratioP1;P1;durP2;ratioP2;P2;SDS_P1;SDS_P2;PMS_P1;PMS_P2;Temp;Humidity;BMP_temperature;BMP_pressure;BME280_temperature;BME280_humidity;BME280_pressure;Samples;Min_cycle;Max_cycle;Signal;HPM_P1;HPM_P2
2023/09/09 00:01:15;;;;;;;10.27;8.30;;;;;;;;;;4985763;28;20825;-58
2023/09/09 00:03:41;;;;;;;13.15;8.80;;;;;;;;;;4988247;28;20410;-58
2023/09/09 00:06:06;;;;;;;10.95;8.63;;;;;;;;;;5002755;28;20400;-59
2023/09/09 00:08:32;;;;;;;10.10;8.40;;;;;;;;;;5025562;28;20445;-59
2023/09/09 00:10:57;;;;;;;10.37;8.20;;;;;;;;;;5021936;28;20419;-58
2023/09/09 00:13:22;;;;;;;10.97;9.33;;;;;;;;;;5017678;28;20770;-59
2023/09/09 00:15:52;;;;;;;10.03;8.80;;;;;;;;;;5025049;28;20496;-59
2023/09/09 00:18:17;;;;;;;11.70;9.73;;;;;;;;;;5022934;28;20415;-58
2023/09/09 00:20:42;;;;;;;11.23;8.93;;;;;;;;;;5023520;28;20521;-59
2023/09/09 00:23:07;;;;;;;10.70;9.10;;;;;;;;;;5024951;28;20893;-59
2023/09/09 00:25:34;;;;;;;11.67;8.97;;;;;;;;;;5025880;28;20395;-58
2023/09/09 00:27:59;;;;;;;13.23;9.90;;;;;;;;;;5021675;28;20415;-58
2023/09/09 00:30:24;;;;;;;11.93;10.70;;;;;;;;;;5022710;28;20399;-58
2023/09/09 00:32:49;;;;;;;12.13;10.10;;;;;;;;;;5025974;28;20484;-59
2023/09/09 00:35:15;;;;;;;11.17;9.63;;;;;;;;;;5021448;28;20422;-59
2023/09/09 00:37:40;;;;;;;12.47;9.30;;;;;;;;;;5024188;28;20536;-59
2023/09/09 00:40:06;;;;;;;11.90;10.50;;;;;;;;;;5025096;28;20782;-59
2023/09/09 00:42:31;;;;;;;11.15;9.95;;;;;;;;;;5023654;28;20426;-58
2023/09/09 00:44:56;;;;;;;12.77;9.97;;;;;;;;;;5020367;28;20410;-58
2023/09/09 00:47:22;;;;;;;12.80;9.57;;;;;;;;;;5025426;28;20815;-59
2023/09/09 00:49:47;;;;;;;11.77;9.40;;;;;;;;;;5024931;28;20411;-59
2023/09/09 00:52:12;;;;;;;11.93;9.40;;;;;;;;;;5019326;28;20407;-59
2023/09/09 00:54:37;;;;;;;12.60;9.20;;;;;;;;;;5025689;28;20477;-58
2023/09/09 00:57:03;;;;;;;9.70;8.53;;;;;;;;;;5023537;28;20419;-59
2023/09/09 00:59:28;;;;;;;12.03;8.80;;;;;;;;;;5020032;28;20403;-58
2023/09/09 01:01:54;;;;;;;11.40;8.50;;;;;;;;;;5023829;28;21225;-58
2023/09/09 01:04:19;;;;;;;10.35;8.73;;;;;;;;;;5022647;28;20422;-58
2023/09/09 01:06:45;;;;;;;10.37;8.40;;;;;;;;;;5023395;28;20406;-58
2023/09/09 01:09:10;;;;;;;10.30;8.60;;;;;;;;;;5019727;28;20407;-59
2023/09/09 01:11:35;;;;;;;9.50;8.50;;;;;;;;;;5023774;28;20413;-58
2023/09/09 01:14:02;;;;;;;9.77;8.32;;;;;;;;;;5016198;28;20507;-59
2023/09/09 01:16:27;;;;;;;10.73;9.05;;;;;;;;;;5018931;28;20401;-58
2023/09/09 01:18:53;;;;;;;11.40;9.27;;;;;;;;;;5010066;28;20415;-59
2023/09/09 01:21:18;;;;;;;12.00;9.20;;;;;;;;;;5023748;28;20403;-59
2023/09/09 01:23:43;;;;;;;10.43;8.40;;;;;;;;;;5020857;28;20922;-58
2023/09/09 01:26:09;;;;;;;10.67;8.80;;;;;;;;;;5021629;28;20399;-59
2023/09/09 01:28:34;;;;;;;9.97;8.37;;;;;;;;;;5025549;28;20428;-58
2023/09/09 01:30:59;;;;;;;10.70;8.67;;;;;;;;;;5024023;28;20897;-58
2023/09/09 01:33:24;;;;;;;10.93;8.63;;;;;;;;;;5019789;28;20394;-59
2023/09/09 01:35:50;;;;;;;10.03;8.40;;;;;;;;;;5025295;28;20423;-59
2023/09/09 01:38:15;;;;;;;9.87;8.23;;;;;;;;;;5024279;28;20419;-59
2023/09/09 01:40:40;;;;;;;9.80;8.53;;;;;;;;;;5019574;28;20410;-59
2023/09/09 01:43:05;;;;;;;11.93;8.97;;;;;;;;;;5023674;28;20407;-59
2023/09/09 01:45:31;;;;;;;10.33;8.83;;;;;;;;;;5018967;28;20395;-59
2023/09/09 01:47:56;;;;;;;10.33;8.50;;;;;;;;;;5021677;28;20894;-59
2023/09/09 01:50:21;;;;;;;9.55;8.07;;;;;;;;;;5022147;28;20434;-59
2023/09/09 01:52:47;;;;;;;9.30;8.27;;;;;;;;;;5024640;28;20407;-58
2023/09/09 01:55:12;;;;;;;9.37;8.40;;;;;;;;;;5022531;28;20418;-59
2023/09/09 01:57:37;;;;;;;10.93;8.25;;;;;;;;;;5019921;28;20487;-59
2023/09/09 02:00:07;;;;;;;9.98;8.00;;;;;;;;;;5023805;28;20430;-59
2023/09/09 02:02:33;;;;;;;9.25;7.75;;;;;;;;;;5023159;28;20970;-59
2023/09/09 02:04:59;;;;;;;10.52;8.20;;;;;;;;;;5020713;28;20418;-59
2023/09/09 02:07:24;;;;;;;10.87;8.13;;;;;;;;;;5021891;28;20396;-59
2023/09/09 02:09:49;;;;;;;10.70;8.00;;;;;;;;;;5024139;28;20398;-58
2023/09/09 02:12:14;;;;;;;9.53;7.50;;;;;;;;;;5022148;28;21120;-59
2023/09/09 02:14:40;;;;;;;8.73;7.80;;;;;;;;;;5020219;28;20415;-59
2023/09/09 02:17:05;;;;;;;10.97;8.30;;;;;;;;;;5023253;28;20419;-58
2023/09/09 02:19:31;;;;;;;9.00;7.33;;;;;;;;;;5024591;28;20549;-58
2023/09/09 02:21:56;;;;;;;8.00;7.20;;;;;;;;;;5018086;28;21020;-58
2023/09/09 02:24:21;;;;;;;10.23;7.83;;;;;;;;;;5023719;28;20961;-59
2023/09/09 02:26:47;;;;;;;8.73;7.17;;;;;;;;;;5024017;28;21007;-59
2023/09/09 02:29:12;;;;;;;9.57;7.97;;;;;;;;;;5016417;28;20420;-58
2023/09/09 02:31:37;;;;;;;8.87;7.13;;;;;;;;;;5016910;28;20768;-59
2023/09/09 02:34:02;;;;;;;9.40;7.40;;;;;;;;;;5023510;28;20420;-59
2023/09/09 02:36:28;;;;;;;9.20;7.70;;;;;;;;;;5022024;28;20910;-58
2023/09/09 02:38:53;;;;;;;10.00;8.00;;;;;;;;;;5020206;28;20817;-58
2023/09/09 02:41:18;;;;;;;9.13;7.87;;;;;;;;;;5023038;28;20415;-59
2023/09/09 02:43:43;;;;;;;9.97;7.77;;;;;;;;;;5015306;28;20408;-58
2023/09/09 02:46:09;;;;;;;9.17;8.10;;;;;;;;;;5018083;28;20409;-59
2023/09/09 02:48:34;;;;;;;11.67;8.20;;;;;;;;;;5023696;28;20403;-58
2023/09/09 02:50:59;;;;;;;11.83;8.20;;;;;;;;;;5023006;28;20772;-58
2023/09/09 02:53:25;;;;;;;10.67;7.97;;;;;;;;;;5019051;28;20403;-59
2023/09/09 02:55:50;;;;;;;10.63;7.93;;;;;;;;;;5021166;28;20411;-58
2023/09/09 02:58:15;;;;;;;12.43;8.70;;;;;;;;;;5022361;28;20415;-59
2023/09/09 03:00:40;;;;;;;9.03;7.80;;;;;;;;;;5022745;28;20410;-58
2023/09/09 03:03:06;;;;;;;12.07;8.60;;;;;;;;;;5018927;28;20913;-59
2023/09/09 03:05:35;;;;;;;10.03;8.70;;;;;;;;;;5021984;28;20399;-59
2023/09/09 03:08:00;;;;;;;10.48;8.95;;;;;;;;;;5022449;28;20395;-60
2023/09/09 03:10:26;;;;;;;10.77;8.83;;;;;;;;;;5018015;28;20454;-58
2023/09/09 03:12:51;;;;;;;11.63;8.60;;;;;;;;;;5021555;28;20926;-58
2023/09/09 03:15:17;;;;;;;10.53;9.00;;;;;;;;;;5022974;28;20410;-59
2023/09/09 03:17:42;;;;;;;10.38;8.60;;;;;;;;;;5019956;28;20411;-59
2023/09/09 03:20:08;;;;;;;9.70;8.37;;;;;;;;;;5019730;28;20439;-59
2023/09/09 03:22:34;;;;;;;9.73;8.20;;;;;;;;;;5013171;28;20405;-59
2023/09/09 03:24:59;;;;;;;10.73;8.20;;;;;;;;;;4995443;28;20499;-59
2023/09/09 03:27:24;;;;;;;11.40;8.67;;;;;;;;;;4996490;28;20414;-58
2023/09/09 03:29:50;;;;;;;9.87;8.60;;;;;;;;;;4994011;28;20419;-59
2023/09/09 03:32:15;;;;;;;11.40;9.20;;;;;;;;;;4992402;28;20422;-59
2023/09/09 03:34:40;;;;;;;12.37;9.30;;;;;;;;;;4998441;28;20930;-59
2023/09/09 03:37:06;;;;;;;13.07;10.00;;;;;;;;;;4992820;28;20469;-59
2023/09/09 03:39:31;;;;;;;12.13;10.27;;;;;;;;;;4987348;28;20400;-58
2023/09/09 03:41:57;;;;;;;12.43;11.13;;;;;;;;;;4989062;28;20415;-59
2023/09/09 03:44:22;;;;;;;15.17;11.50;;;;;;;;;;4993708;28;20403;-58
2023/09/09 03:46:47;;;;;;;14.80;11.80;;;;;;;;;;4994965;28;20411;-58
2023/09/09 03:49:12;;;;;;;13.83;11.83;;;;;;;;;;4996006;28;20413;-59
2023/09/09 03:51:38;;;;;;;13.70;12.30;;;;;;;;;;4998747;28;20478;-59
2023/09/09 03:54:03;;;;;;;13.37;11.97;;;;;;;;;;4992727;28;20482;-59
2023/09/09 03:56:28;;;;;;;15.43;12.20;;;;;;;;;;4997036;28;20400;-58
2023/09/09 03:58:53;;;;;;;13.03;11.70;;;;;;;;;;4998251;28;20997;-59
2023/09/09 04:01:19;;;;;;;15.13;12.30;;;;;;;;;;4988768;28;20406;-59
2023/09/09 04:03:44;;;;;;;13.03;11.73;;;;;;;;;;4986190;28;21102;-59
2023/09/09 04:06:10;;;;;;;14.43;11.57;;;;;;;;;;4989578;28;20408;-59
2023/09/09 04:08:38;;;;;;;15.18;11.50;;;;;;;;;;4985934;28;21265;-59
2023/09/09 04:11:03;;;;;;;15.32;13.73;;;;;;;;;;4996783;28;20982;-59
2023/09/09 04:13:28;;;;;;;16.63;14.63;;;;;;;;;;4993125;28;20522;-59
2023/09/09 04:15:54;;;;;;;15.87;14.17;;;;;;;;;;4997437;28;20901;-59
2023/09/09 04:18:19;;;;;;;16.87;15.07;;;;;;;;;;4995230;28;20426;-58
2023/09/09 04:20:45;;;;;;;16.27;14.20;;;;;;;;;;4995222;28;20410;-58
2023/09/09 04:23:10;;;;;;;16.50;14.60;;;;;;;;;;4987629;28;20409;-59
2023/09/09 04:25:35;;;;;;;18.93;15.97;;;;;;;;;;4991652;28;20409;-59
2023/09/09 04:28:01;;;;;;;17.80;15.93;;;;;;;;;;4986514;28;20439;-60
2023/09/09 04:30:26;;;;;;;18.97;17.03;;;;;;;;;;4992200;28;20431;-58
2023/09/09 04:32:51;;;;;;;19.83;17.83;;;;;;;;;;4999457;28;20411;-58
2023/09/09 04:35:16;;;;;;;20.63;18.47;;;;;;;;;;4990940;28;20854;-59
2023/09/09 04:37:42;;;;;;;20.37;18.30;;;;;;;;;;4990995;28;20510;-58
2023/09/09 04:40:10;;;;;;;21.17;18.97;;;;;;;;;;4990279;28;20418;-59
2023/09/09 04:42:35;;;;;;;20.80;18.60;;;;;;;;;;4993992;28;20877;-58
2023/09/09 04:45:00;;;;;;;20.90;18.43;;;;;;;;;;4988552;28;20407;-58
2023/09/09 04:47:26;;;;;;;20.43;18.13;;;;;;;;;;4984383;28;20430;-58
2023/09/09 04:49:51;;;;;;;21.37;18.40;;;;;;;;;;4987774;28;20454;-59
2023/09/09 04:52:16;;;;;;;23.27;20.77;;;;;;;;;;4985954;28;20455;-59
2023/09/09 04:54:43;;;;;;;21.13;18.93;;;;;;;;;;4991520;28;20420;-59
2023/09/09 04:57:08;;;;;;;20.30;18.10;;;;;;;;;;4994231;28;20502;-59
2023/09/09 04:59:33;;;;;;;21.87;19.47;;;;;;;;;;4993936;28;20406;-59
2023/09/09 05:01:58;;;;;;;20.73;18.57;;;;;;;;;;4989811;28;20446;-58
2023/09/09 05:04:24;;;;;;;21.17;18.70;;;;;;;;;;4989497;28;20890;-59
2023/09/09 05:06:49;;;;;;;20.97;18.47;;;;;;;;;;4992169;28;20414;-58
2023/09/09 05:09:14;;;;;;;20.03;18.03;;;;;;;;;;4983582;28;20395;-59
2023/09/09 05:11:40;;;;;;;20.50;18.40;;;;;;;;;;4982017;28;20591;-59
2023/09/09 05:14:05;;;;;;;26.57;18.73;;;;;;;;;;4987810;28;20426;-59
2023/09/09 05:16:30;;;;;;;21.80;19.17;;;;;;;;;;4991791;28;20560;-59
2023/09/09 05:18:56;;;;;;;22.17;19.43;;;;;;;;;;4989992;28;20909;-59
2023/09/09 05:21:21;;;;;;;22.13;19.83;;;;;;;;;;4992527;28;20766;-58
2023/09/09 05:23:46;;;;;;;22.73;20.33;;;;;;;;;;4993260;28;20561;-59
2023/09/09 05:26:11;;;;;;;24.73;22.13;;;;;;;;;;4989957;28;20401;-59
2023/09/09 05:28:37;;;;;;;23.97;21.47;;;;;;;;;;4990544;28;20402;-58
2023/09/09 05:31:06;;;;;;;24.10;21.50;;;;;;;;;;4989024;28;20415;-59
2023/09/09 05:33:31;;;;;;;24.17;21.67;;;;;;;;;;4982556;28;20410;-59
2023/09/09 05:35:56;;;;;;;23.23;20.67;;;;;;;;;;4982702;28;20399;-59
2023/09/09 05:38:22;;;;;;;25.33;22.73;;;;;;;;;;4991717;28;20437;-58
2023/09/09 05:40:47;;;;;;;24.63;22.02;;;;;;;;;;4991187;28;20403;-59
2023/09/09 05:43:13;;;;;;;24.75;22.30;;;;;;;;;;4990629;28;20924;-60
2023/09/09 05:45:38;;;;;;;27.42;24.60;;;;;;;;;;4991629;28;20651;-59
2023/09/09 05:48:03;;;;;;;29.63;26.53;;;;;;;;;;4993453;28;20405;-59
2023/09/09 05:50:29;;;;;;;28.88;25.85;;;;;;;;;;4989540;28;20403;-59
2023/09/09 05:52:54;;;;;;;28.63;25.60;;;;;;;;;;4987817;28;20425;-59
2023/09/09 05:55:19;;;;;;;27.63;24.80;;;;;;;;;;4985727;28;20506;-59
2023/09/09 05:57:44;;;;;;;27.13;24.33;;;;;;;;;;4980030;28;20455;-59
2023/09/09 06:00:10;;;;;;;27.15;24.30;;;;;;;;;;4982997;28;20413;-60
2023/09/09 06:02:36;;;;;;;25.75;23.13;;;;;;;;;;4992037;28;20439;-59
2023/09/09 06:05:01;;;;;;;23.95;21.40;;;;;;;;;;4989379;28;20411;-60
2023/09/09 06:07:26;;;;;;;23.07;20.67;;;;;;;;;;4989472;28;20911;-59
2023/09/09 06:09:51;;;;;;;22.47;19.60;;;;;;;;;;4988924;28;20497;-60
2023/09/09 06:12:17;;;;;;;23.93;21.13;;;;;;;;;;4991518;28;20407;-59
2023/09/09 06:14:43;;;;;;;22.60;20.27;;;;;;;;;;4988691;28;20544;-60
2023/09/09 06:17:08;;;;;;;22.85;20.58;;;;;;;;;;4980695;28;20445;-60
2023/09/09 06:19:34;;;;;;;21.30;19.10;;;;;;;;;;4988408;28;20548;-60
2023/09/09 06:21:59;;;;;;;21.20;19.00;;;;;;;;;;4981414;28;20414;-59
2023/09/09 06:24:24;;;;;;;22.60;18.00;;;;;;;;;;4989469;28;21137;-60
2023/09/09 06:26:50;;;;;;;18.75;16.80;;;;;;;;;;4992027;28;20735;-59
2023/09/09 06:29:15;;;;;;;20.27;18.10;;;;;;;;;;4988545;28;20831;-59
2023/09/09 06:31:41;;;;;;;19.80;17.70;;;;;;;;;;4994597;28;20406;-59
2023/09/09 06:34:07;;;;;;;18.90;16.38;;;;;;;;;;4989225;28;20421;-60
2023/09/09 06:36:32;;;;;;;19.63;17.63;;;;;;;;;;4990781;28;20403;-60
2023/09/09 06:38:57;;;;;;;18.53;16.53;;;;;;;;;;5020464;28;20796;-58
2023/09/09 06:41:22;;;;;;;19.67;17.77;;;;;;;;;;5023341;28;20387;-59
2023/09/09 06:43:48;;;;;;;20.23;18.13;;;;;;;;;;5017966;28;20425;-59
2023/09/09 06:46:14;;;;;;;20.67;18.55;;;;;;;;;;5019655;28;20447;-59
2023/09/09 06:48:39;;;;;;;22.43;20.13;;;;;;;;;;5023801;28;20426;-60
2023/09/09 06:51:04;;;;;;;24.17;21.57;;;;;;;;;;5019985;28;20453;-59
2023/09/09 06:53:30;;;;;;;24.38;21.85;;;;;;;;;;5021388;28;20943;-59
2023/09/09 06:55:56;;;;;;;23.90;21.40;;;;;;;;;;5023025;28;20413;-59
2023/09/09 06:58:21;;;;;;;25.00;22.40;;;;;;;;;;5021477;28;20430;-59
2023/09/09 07:00:52;;;;;;;24.83;22.30;;;;;;;;;;5019098;28;20900;-59
2023/09/09 07:03:18;;;;;;;24.88;22.20;;;;;;;;;;5022042;28;20452;-59
2023/09/09 07:05:43;;;;;;;27.07;24.20;;;;;;;;;;5023406;28;20445;-59
2023/09/09 07:08:09;;;;;;;24.50;22.00;;;;;;;;;;5019436;28;20411;-59
2023/09/09 07:10:34;;;;;;;25.37;22.60;;;;;;;;;;5021438;28;20422;-59
2023/09/09 07:12:59;;;;;;;23.63;21.07;;;;;;;;;;5023652;28;20488;-59
2023/09/09 07:15:25;;;;;;;26.20;23.10;;;;;;;;;;5021319;28;20395;-59
2023/09/09 07:17:50;;;;;;;27.65;23.23;;;;;;;;;;5018078;28;20432;-59
2023/09/09 07:20:16;;;;;;;26.07;23.47;;;;;;;;;;5023182;28;20758;-59
2023/09/09 07:22:42;;;;;;;24.50;21.83;;;;;;;;;;5023218;28;20482;-59
2023/09/09 07:25:07;;;;;;;24.57;22.23;;;;;;;;;;5016683;28;21960;-59
2023/09/09 07:27:32;;;;;;;23.13;20.90;;;;;;;;;;5023746;28;20406;-59
2023/09/09 07:29:58;;;;;;;25.60;23.00;;;;;;;;;;5017095;28;20407;-59
2023/09/09 07:32:23;;;;;;;26.77;24.03;;;;;;;;;;5019250;28;20395;-59
2023/09/09 07:34:49;;;;;;;28.57;25.77;;;;;;;;;;5021242;28;20832;-59
2023/09/09 07:37:14;;;;;;;29.53;26.73;;;;;;;;;;5022562;28;20411;-59
2023/09/09 07:39:45;;;;;;;30.70;27.17;;;;;;;;;;5019635;28;20500;-59
2023/09/09 07:42:12;;;;;;;33.08;29.67;;;;;;;;;;5017491;28;20407;-59
2023/09/09 07:44:37;;;;;;;33.13;29.80;;;;;;;;;;5017134;28;20400;-59
2023/09/09 07:47:06;;;;;;;35.57;32.07;;;;;;;;;;5020425;28;20403;-59
2023/09/09 07:49:32;;;;;;;35.95;32.35;;;;;;;;;;5016657;28;20424;-59
2023/09/09 07:51:57;;;;;;;37.10;33.33;;;;;;;;;;5012329;28;20467;-59
2023/09/09 07:54:22;;;;;;;40.83;36.83;;;;;;;;;;5002414;28;20437;-59
2023/09/09 07:56:47;;;;;;;36.57;33.00;;;;;;;;;;5010041;28;20929;-59
2023/09/09 07:59:13;;;;;;;38.57;34.87;;;;;;;;;;5007622;28;20752;-59
2023/09/09 08:01:38;;;;;;;39.83;35.93;;;;;;;;;;5014985;28;20430;-59
2023/09/09 08:04:04;;;;;;;42.13;37.83;;;;;;;;;;5008848;28;20569;-59
2023/09/09 08:06:29;;;;;;;41.17;37.17;;;;;;;;;;5022483;28;20402;-60
2023/09/09 08:08:54;;;;;;;36.43;32.70;;;;;;;;;;5023556;28;20406;-59
2023/09/09 08:11:19;;;;;;;35.53;31.93;;;;;;;;;;5022706;28;20467;-59
2023/09/09 08:13:45;;;;;;;34.70;31.20;;;;;;;;;;5025623;28;20407;-59
2023/09/09 08:16:10;;;;;;;42.47;37.97;;;;;;;;;;5026222;28;20411;-59
2023/09/09 08:18:35;;;;;;;40.07;35.97;;;;;;;;;;5021422;28;20470;-59
2023/09/09 08:21:03;;;;;;;34.70;31.20;;;;;;;;;;5025086;28;20812;-60
2023/09/09 08:23:28;;;;;;;40.78;36.67;;;;;;;;;;5025746;28;20985;-59
2023/09/09 08:25:53;;;;;;;35.40;31.73;;;;;;;;;;5023512;28;20497;-59
2023/09/09 08:28:18;;;;;;;39.07;35.13;;;;;;;;;;5021850;28;20421;-59
2023/09/09 08:30:44;;;;;;;38.93;34.97;;;;;;;;;;5025562;28;20409;-58
2023/09/09 08:33:09;;;;;;;35.37;31.77;;;;;;;;;;5024193;28;20415;-59
2023/09/09 08:35:34;;;;;;;29.73;26.73;;;;;;;;;;5021067;28;20758;-58
2023/09/09 08:38:00;;;;;;;34.13;30.70;;;;;;;;;;5026273;28;20434;-59
2023/09/09 08:40:25;;;;;;;34.13;30.73;;;;;;;;;;5045558;28;20741;-59
2023/09/09 08:42:58;;;;;;;32.23;28.87;;;;;;;;;;5039687;28;20406;-58
2023/09/09 08:45:27;;;;;;;25.65;22.25;;;;;;;;;;5037348;28;20405;-59
2023/09/09 08:47:52;;;;;;;24.13;21.13;;;;;;;;;;5045492;28;20449;-58
2023/09/09 08:50:17;;;;;;;24.30;21.83;;;;;;;;;;5041757;28;20436;-59
2023/09/09 08:52:43;;;;;;;24.07;20.80;;;;;;;;;;5041218;28;20410;-58
2023/09/09 08:55:08;;;;;;;21.17;19.13;;;;;;;;;;5043824;28;20438;-59
2023/09/09 08:57:33;;;;;;;22.13;19.77;;;;;;;;;;5044434;28;20502;-58
2023/09/09 08:59:59;;;;;;;21.67;19.57;;;;;;;;;;5041051;28;20407;-59
2023/09/09 09:02:24;;;;;;;23.47;20.10;;;;;;;;;;5043736;28;20412;-59
2023/09/09 09:04:50;;;;;;;20.70;18.50;;;;;;;;;;5045273;28;20421;-58
2023/09/09 09:07:15;;;;;;;21.10;18.60;;;;;;;;;;5040855;28;20520;-59
2023/09/09 09:09:40;;;;;;;21.03;18.83;;;;;;;;;;5042673;28;20413;-58
2023/09/09 09:12:06;;;;;;;19.97;18.07;;;;;;;;;;5044117;28;20410;-59
2023/09/09 09:14:31;;;;;;;20.33;18.20;;;;;;;;;;5051225;28;20405;-59
2023/09/09 09:16:57;;;;;;;19.77;17.40;;;;;;;;;;5045717;28;20769;-58
2023/09/09 09:19:26;;;;;;;20.70;18.47;;;;;;;;;;5043841;28;20392;-58
2023/09/09 09:21:51;;;;;;;19.83;17.67;;;;;;;;;;5039952;28;20444;-59
2023/09/09 09:24:20;;;;;;;19.73;17.73;;;;;;;;;;5042988;28;20932;-58
2023/09/09 09:26:45;;;;;;;20.40;18.17;;;;;;;;;;5044649;28;20429;-59
2023/09/09 09:29:11;;;;;;;19.93;17.83;;;;;;;;;;5039929;28;20441;-59
2023/09/09 09:31:36;;;;;;;19.27;17.27;;;;;;;;;;5042550;28;20409;-59
2023/09/09 09:34:01;;;;;;;19.58;17.45;;;;;;;;;;5035212;28;20449;-59
2023/09/09 09:36:27;;;;;;;21.13;17.98;;;;;;;;;;5033922;28;20393;-58
2023/09/09 09:38:53;;;;;;;19.70;17.63;;;;;;;;;;5033685;28;20427;-58
2023/09/09 09:41:18;;;;;;;19.25;17.27;;;;;;;;;;5033723;28;20415;-59
2023/09/09 09:43:44;;;;;;;20.73;18.53;;;;;;;;;;5032023;28;20411;-59
2023/09/09 09:46:16;;;;;;;21.02;18.60;;;;;;;;;;5017392;28;20493;-59
2023/09/09 09:48:41;;;;;;;20.88;18.77;;;;;;;;;;5016105;28;20407;-58
2023/09/09 09:51:07;;;;;;;18.00;16.10;;;;;;;;;;5024449;28;20403;-59
2023/09/09 09:53:36;;;;;;;16.40;14.70;;;;;;;;;;5020560;28;20936;-59
2023/09/09 09:56:02;;;;;;;17.80;14.73;;;;;;;;;;5027356;28;20453;-59
2023/09/09 09:58:27;;;;;;;16.80;14.63;;;;;;;;;;5031833;28;20399;-58
2023/09/09 10:00:53;;;;;;;17.65;15.68;;;;;;;;;;5018621;28;20422;-59
2023/09/09 10:03:18;;;;;;;16.77;15.07;;;;;;;;;;5025699;28;20941;-59
2023/09/09 10:05:44;;;;;;;18.13;15.53;;;;;;;;;;5021835;28;20411;-58
2023/09/09 10:08:16;;;;;;;16.67;14.87;;;;;;;;;;5019103;28;20494;-59
2023/09/09 10:10:42;;;;;;;15.98;14.02;;;;;;;;;;5031505;28;20410;-58
2023/09/09 10:13:09;;;;;;;17.77;15.10;;;;;;;;;;5021527;28;20409;-59
2023/09/09 10:15:35;;;;;;;17.33;15.20;;;;;;;;;;5025855;28;20403;-59
2023/09/09 10:18:00;;;;;;;15.40;13.20;;;;;;;;;;5020123;28;21523;-60
2023/09/09 10:20:25;;;;;;;13.53;11.13;;;;;;;;;;5023064;28;20409;-59
2023/09/09 10:22:53;;;;;;;15.57;11.33;;;;;;;;;;5022995;28;20425;-59
2023/09/09 10:25:18;;;;;;;12.77;10.73;;;;;;;;;;5020742;28;20415;-58
2023/09/09 10:27:43;;;;;;;12.23;10.30;;;;;;;;;;5020469;28;20453;-59
2023/09/09 10:30:09;;;;;;;13.40;11.17;;;;;;;;;;5022469;28;21406;-58
2023/09/09 10:32:35;;;;;;;14.73;11.63;;;;;;;;;;5030805;28;20457;-59
2023/09/09 10:35:00;;;;;;;14.35;11.15;;;;;;;;;;5026757;28;20411;-59
2023/09/09 10:37:25;;;;;;;11.47;8.87;;;;;;;;;;5031725;28;20925;-58
2023/09/09 10:39:51;;;;;;;14.07;10.70;;;;;;;;;;5022615;28;20429;-58
2023/09/09 10:42:16;;;;;;;14.33;11.93;;;;;;;;;;5019003;28;20814;-59
2023/09/09 10:44:46;;;;;;;12.00;9.60;;;;;;;;;;5018384;28;20443;-58
2023/09/09 10:47:11;;;;;;;14.55;11.60;;;;;;;;;;5023780;28;20491;-59
2023/09/09 10:49:36;;;;;;;10.97;8.87;;;;;;;;;;5019920;28;20466;-59
2023/09/09 10:52:02;;;;;;;11.27;10.10;;;;;;;;;;5019910;28;20411;-59
2023/09/09 10:54:27;;;;;;;12.50;11.20;;;;;;;;;;5035215;28;20797;-58
2023/09/09 10:56:53;;;;;;;11.23;9.00;;;;;;;;;;5034812;28;20416;-58
2023/09/09 10:59:24;;;;;;;11.40;10.10;;;;;;;;;;5018077;28;20439;-59
2023/09/09 11:02:08;;;;;;;11.35;9.43;;;;;;;;;;5022393;28;20431;-58
2023/09/09 11:04:33;;;;;;;12.73;10.75;;;;;;;;;;5043190;28;20803;-58
2023/09/09 11:06:59;;;;;;;10.23;8.67;;;;;;;;;;5041032;28;20427;-59
2023/09/09 11:09:30;;;;;;;13.15;10.32;;;;;;;;;;5032902;28;20417;-58
2023/09/09 11:11:56;;;;;;;11.60;10.00;;;;;;;;;;5031480;28;20445;-58
2023/09/09 11:14:21;;;;;;;11.77;9.10;;;;;;;;;;5031345;28;20418;-59
2023/09/09 11:16:48;;;;;;;10.00;8.20;;;;;;;;;;5019244;28;20452;-58
2023/09/09 11:19:14;;;;;;;10.43;8.20;;;;;;;;;;5019636;28;20414;-58
2023/09/09 11:21:41;;;;;;;10.25;8.13;;;;;;;;;;5023452;28;20399;-59
2023/09/09 11:24:06;;;;;;;9.93;8.53;;;;;;;;;;5020419;28;20410;-59
2023/09/09 11:26:31;;;;;;;11.60;7.90;;;;;;;;;;5020046;28;20411;-58
2023/09/09 11:28:57;;;;;;;11.60;8.23;;;;;;;;;;5023250;28;20475;-58
2023/09/09 11:31:22;;;;;;;11.33;8.53;;;;;;;;;;5021383;28;20466;-58
2023/09/09 11:33:48;;;;;;;11.43;7.77;;;;;;;;;;5018443;28;20459;-58
2023/09/09 11:36:15;;;;;;;11.20;7.60;;;;;;;;;;5022383;28;20407;-59
2023/09/09 11:38:40;;;;;;;7.90;6.47;;;;;;;;;;5021577;28;20469;-58
2023/09/09 11:41:06;;;;;;;9.90;6.50;;;;;;;;;;5019999;28;20391;-59
2023/09/09 11:43:31;;;;;;;7.87;6.60;;;;;;;;;;5021820;28;20402;-59
2023/09/09 11:45:57;;;;;;;10.60;6.30;;;;;;;;;;5018633;28;20446;-58
2023/09/09 11:48:22;;;;;;;9.40;5.70;;;;;;;;;;5034038;28;20379;-59
2023/09/09 11:50:48;;;;;;;8.82;6.10;;;;;;;;;;5037308;28;21384;-58
2023/09/09 11:53:13;;;;;;;7.97;5.60;;;;;;;;;;5027093;28;20414;-59
2023/09/09 11:55:39;;;;;;;7.47;5.50;;;;;;;;;;5025514;28;20486;-58
2023/09/09 11:58:04;;;;;;;7.57;6.10;;;;;;;;;;5021121;28;20421;-59
2023/09/09 12:00:30;;;;;;;9.25;6.10;;;;;;;;;;5025086;28;20503;-58
2023/09/09 12:02:55;;;;;;;8.83;5.80;;;;;;;;;;5026847;28;20494;-58
2023/09/09 12:05:20;;;;;;;7.72;5.60;;;;;;;;;;5023469;28;20391;-58
2023/09/09 12:07:46;;;;;;;7.60;5.07;;;;;;;;;;5022343;28;20411;-58
2023/09/09 12:10:14;;;;;;;8.53;5.20;;;;;;;;;;5026472;28;20486;-59
2023/09/09 12:12:41;;;;;;;6.97;4.88;;;;;;;;;;5024609;28;20406;-58
2023/09/09 12:15:06;;;;;;;6.43;4.30;;;;;;;;;;5019620;28;20760;-59
2023/09/09 12:17:31;;;;;;;7.37;4.20;;;;;;;;;;5026478;28;20423;-59
2023/09/09 12:19:58;;;;;;;8.10;4.40;;;;;;;;;;5034215;28;20491;-58
2023/09/09 12:22:30;;;;;;;6.45;4.05;;;;;;;;;;5033640;28;20394;-58
2023/09/09 12:24:56;;;;;;;7.35;4.03;;;;;;;;;;5035256;28;20819;-58
2023/09/09 12:27:21;;;;;;;5.67;3.93;;;;;;;;;;5033648;28;20401;-58
2023/09/09 12:29:46;;;;;;;5.80;4.10;;;;;;;;;;5031498;28;20401;-59
2023/09/09 12:32:11;;;;;;;5.90;4.20;;;;;;;;;;5023346;28;20414;-59
2023/09/09 12:34:37;;;;;;;6.40;4.03;;;;;;;;;;5025272;28;20442;-58
2023/09/09 12:37:03;;;;;;;6.03;3.95;;;;;;;;;;5024486;28;20894;-59
2023/09/09 12:39:29;;;;;;;6.00;3.83;;;;;;;;;;5021746;28;20473;-58
2023/09/09 12:42:00;;;;;;;5.95;3.97;;;;;;;;;;5024280;28;20407;-58
2023/09/09 12:44:25;;;;;;;6.95;3.53;;;;;;;;;;5016982;28;20389;-59
2023/09/09 12:46:51;;;;;;;6.07;3.77;;;;;;;;;;5015450;28;20411;-58
2023/09/09 12:49:17;;;;;;;5.33;3.53;;;;;;;;;;5031876;28;20938;-59
2023/09/09 12:51:42;;;;;;;5.33;3.50;;;;;;;;;;5031927;28;20395;-58
2023/09/09 12:54:07;;;;;;;5.00;3.60;;;;;;;;;;5034311;28;20412;-59
2023/09/09 12:56:33;;;;;;;5.77;3.40;;;;;;;;;;5035337;28;20752;-58
2023/09/09 12:58:58;;;;;;;4.80;3.37;;;;;;;;;;5033429;28;20973;-58
2023/09/09 13:01:23;;;;;;;6.40;3.70;;;;;;;;;;5036769;28;20481;-58
2023/09/09 13:03:48;;;;;;;6.57;3.70;;;;;;;;;;5036407;28;20397;-58
2023/09/09 13:06:14;;;;;;;6.37;3.57;;;;;;;;;;5032753;28;20463;-58
2023/09/09 13:08:39;;;;;;;5.73;3.50;;;;;;;;;;5035401;28;20404;-58
2023/09/09 13:11:05;;;;;;;5.73;3.50;;;;;;;;;;5027750;28;20439;-59
2023/09/09 13:13:30;;;;;;;7.07;3.60;;;;;;;;;;5023311;28;20483;-58
2023/09/09 13:15:56;;;;;;;5.90;3.30;;;;;;;;;;5022029;28;20415;-58
2023/09/09 13:18:21;;;;;;;5.70;3.50;;;;;;;;;;5025220;28;20904;-58
2023/09/09 13:20:46;;;;;;;5.53;3.60;;;;;;;;;;5025030;28;20404;-58
2023/09/09 13:23:12;;;;;;;6.80;3.90;;;;;;;;;;5019411;28;20482;-59
2023/09/09 13:25:37;;;;;;;5.07;3.90;;;;;;;;;;5025306;28;20407;-58
2023/09/09 13:28:03;;;;;;;6.55;4.03;;;;;;;;;;5024685;28;20433;-59
2023/09/09 13:30:28;;;;;;;7.72;4.43;;;;;;;;;;5020426;28;20507;-58
2023/09/09 13:32:54;;;;;;;9.13;4.03;;;;;;;;;;5002863;28;20427;-58
2023/09/09 13:35:19;;;;;;;5.70;3.97;;;;;;;;;;4988845;28;20510;-59
2023/09/09 13:37:44;;;;;;;5.95;4.15;;;;;;;;;;4988725;28;20418;-58
2023/09/09 13:40:10;;;;;;;6.67;4.00;;;;;;;;;;4992930;28;20424;-59
2023/09/09 13:42:35;;;;;;;7.30;4.23;;;;;;;;;;5001083;28;21308;-58
2023/09/09 13:45:00;;;;;;;6.27;3.70;;;;;;;;;;5003218;28;20400;-59
2023/09/09 13:47:27;;;;;;;6.20;4.10;;;;;;;;;;5007028;28;20397;-58
2023/09/09 13:49:52;;;;;;;7.80;4.32;;;;;;;;;;4993164;28;20878;-58
2023/09/09 13:52:17;;;;;;;6.33;3.90;;;;;;;;;;4993040;28;20461;-59
2023/09/09 13:54:43;;;;;;;6.73;3.80;;;;;;;;;;5003257;28;20930;-59
2023/09/09 13:57:08;;;;;;;6.22;3.75;;;;;;;;;;5001495;28;20506;-59
2023/09/09 13:59:36;;;;;;;8.93;4.10;;;;;;;;;;5000114;28;20411;-58
2023/09/09 14:02:02;;;;;;;11.05;4.28;;;;;;;;;;4987552;28;20542;-59
2023/09/09 14:04:27;;;;;;;7.53;3.70;;;;;;;;;;4995421;28;20432;-58
2023/09/09 14:06:52;;;;;;;5.63;4.20;;;;;;;;;;4992773;28;20783;-58
2023/09/09 14:09:18;;;;;;;5.93;3.83;;;;;;;;;;4993177;28;20416;-58
2023/09/09 14:11:43;;;;;;;7.20;4.00;;;;;;;;;;4996996;28;20918;-58
2023/09/09 14:14:08;;;;;;;7.55;4.32;;;;;;;;;;4991541;28;20509;-59
2023/09/09 14:16:33;;;;;;;6.17;4.57;;;;;;;;;;5013545;28;20419;-58